Buffalo, SD

4:06 AM MDT on September 19, 2014 (GMT -0600)
Hettinger Municipal | Change Station
CLOSE
Current Station
Airport
Location: Hettinger,
Elevation: 2703 ft
Nearby Weather Stations

Elev 2703 ft 46.01 °N, 102.66 °W | Updated 13 minutes ago

Partly Cloudy
Partly Cloudy
67 °F
Feels Like 67 °F
N
18
Wind Variable Wind from WSW

Today
High -- | Low -- °F
--% Chance of Precip.
Yesterday
High -- | Low -- °F
Precip. -- in
6:38 AM 6:57 PM
Waning Crescent, 20% visible
Pressure 29.67 in
Visibility 10.0 miles
Clouds Few 6500 ft
Scattered Clouds 9000 ft
Overcast 11000 ft
Dew Point 55 °F
Humidity 66%
Rainfall 0.00 in
Snow Depth Not available.
UV 0 out of 12
Pollen 5.10 out of 12
Air Quality Not available.
Flu Activity Not available.
METAR KHEI 190953Z AUTO 25016KT 10SM FEW065 SCT090 OVC110 19/13 A2972 RMK AO2 PK WND 29029/0937 RAE01 PRESRR SLP045 P0000 T01940128

More Conditions Fewer Conditions

Pressure 29.67 in
Visibility 10.0 miles
Clouds Few 6500 ft
Scattered Clouds 9000 ft
Overcast 11000 ft
Dew Point 55 °F
Humidity 66%
Rainfall 0.00 in
Snow Depth Not available.
UV 0 out of 12
Pollen 5.10 out of 12
Air Quality Not available.
Flu Activity Not available.
METAR KHEI 190953Z AUTO 25016KT 10SM FEW065 SCT090 OVC110 19/13 A2972 RMK AO2 PK WND 29029/0937 RAE01 PRESRR SLP045 P0000 T01940128

More Conditions Fewer Conditions

10-Day Weather Forecast

Almanac

Astronomy

Sep. 19, 2014 Rise Set
Actual Time 6:38 AM MDT 6:57 PM MDT
Civil Twilight 6:08 AM MDT 7:27 PM MDT
Nautical Twilight 5:33 AM MDT 8:02 PM MDT
Astronomical Twilight 4:57 AM MDT 8:38 PM MDT
Moon 2:15 AM MDT 4:36 PM MDT
Length of Visible Light 13h 19m
Length of Day
12h 19m
Tomorrow will be 3m 11s shorter.
Waning Crescent, 20% of the Moon is Illuminated
Today
Waning Crescent
Sep 24
New
Oct 1
First Quarter
Oct 8
Full
Oct 15
Last Quarter

Today's Extremes

State Highs State Lows

Community

WunderPhotos

Upload Photos

1,754,583 photos uploaded!

Nearby

Snow Depth

Station Depth Elevation
Blind Park 0 in 6890 ft

Earthquake Activity

City Distance Mag. Time & Date
No recent earthquake activity has been reported nearby.
Minimum magnitude displayed is 2.5.

Coastal Water Temperatures

Place Temperature
No Stations Reporting

Nearby Weather Stations